Latest Weather Observations for Oenpelli Airport

IDD60801

Issued at 4:05 pm CST Saturday 2 August 2014 (issued every 30 minutes, with the page automatically refreshed every 10 minutes)

About weather observations | Map of weather stations | Latest weather observations for NT | Other Formats
Station Details ID: 014310 Name: OENPELLI AIRPORT Lat: -12.33 Lon: 133.01 Height: 7.5 m
Data from the previous 72 hours. | See also: Recent months for locations in Northern Territory
Date/Time
CST
Temp
°C
App
Temp
°C
Dew
Point
Rel
Hum
%
Delta-T
°C
Wind Press
QNH
hPa
Press
MSL
hPa
Rain
since 9 am
mm
Dir
 
Spd
km/h
Gust
km/h
Spd
kts
Gust
kts
02/04:00pm 32.2 31.2 16.5 39 9.9 E 17 20 9 11 1011.0 - 0.0
02/03:30pm 32.3 30.8 16.2 38 10.1 ENE 19 28 10 15 1011.1 1011.0 0.0
02/03:00pm 31.5 29.7 15.5 38 9.9 E 19 26 10 14 1011.4 1011.3 0.0
02/02:30pm 33.0 32.1 16.8 38 10.3 E 17 30 9 16 1011.8 1011.7 0.0
02/02:00pm 31.1 29.6 16.3 41 9.3 E 19 28 10 15 1012.4 - 0.0
02/01:30pm 32.1 31.0 16.4 39 9.9 E 17 22 9 12 1012.8 1012.7 0.0
02/01:00pm 31.4 29.5 15.8 39 9.7 E 20 28 11 15 1013.3 - 0.0
02/12:30pm 31.7 28.7 14.8 36 10.4 ENE 24 37 13 20 1013.7 1013.6 0.0
02/12:00pm 31.8 29.2 14.9 36 10.4 E 22 32 12 17 1014.3 1014.2 0.0
02/11:30am 31.5 28.4 14.6 36 10.3 E 24 37 13 20 1014.8 1014.7 0.0
02/11:00am 31.6 29.6 15.5 37 10.0 E 20 32 11 17 1015.2 - 0.0
02/10:30am 30.1 28.2 15.8 42 8.8 E 20 35 11 19 1015.6 1015.5 0.0
02/10:00am 29.0 27.7 16.9 48 7.6 ENE 19 24 10 13 1015.9 - 0.0
02/09:30am 27.7 29.4 18.4 57 5.9 E 7 13 4 7 1016.0 1015.9 0.0
02/09:00am 25.4 28.6 18.8 67 4.2 CALM 0 0 0 0 1015.9 1015.8 0.0
02/08:30am 22.9 26.2 19.1 79 2.4 CALM 0 0 0 0 1015.7 1015.6 0.0
02/08:00am 20.8 24.0 18.9 89 1.2 CALM 0 0 0 0 1015.3 - 0.0
02/07:30am 19.7 22.4 17.8 89 1.2 CALM 0 0 0 0 1015.0 1014.9 0.0
02/07:00am 19.5 22.1 17.6 89 1.2 CALM 0 0 0 0 1014.7 - 0.0
02/06:30am 19.8 22.5 17.8 88 1.2 CALM 0 2 0 1 1014.3 1014.2 0.0
02/06:00am 20.6 23.0 18.0 85 1.6 NE 2 4 1 2 1014.0 1013.9 0.0
02/05:30am 20.3 23.0 17.7 85 1.6 N 0 0 0 0 1013.9 1013.8 0.0
02/05:00am 21.0 24.0 18.4 85 1.6 CALM 0 0 0 0 1013.8 - 0.0
02/04:30am 21.3 24.3 18.5 84 1.8 CALM 0 0 0 0 1013.6 1013.5 0.0
02/04:00am 21.8 24.3 18.2 80 2.2 NNE 2 4 1 2 1013.4 - 0.0
02/03:30am 22.6 25.1 19.0 80 2.3 NNE 4 6 2 3 1013.6 1013.5 0.0
02/03:00am 22.3 25.2 18.3 78 2.5 CALM 0 0 0 0 1013.7 1013.6 0.0
02/02:30am 23.3 25.3 18.8 76 2.8 NE 6 7 3 4 1013.9 1013.8 0.0
02/02:00am 23.3 25.3 18.8 76 2.8 NNE 6 7 3 4 1014.1 - 0.0
02/01:30am 23.7 25.7 18.8 74 3.1 NNE 6 7 3 4 1014.2 1014.1 0.0
02/01:00am 23.7 25.6 18.6 73 3.2 NE 6 7 3 4 1014.3 - 0.0
02/12:30am 24.0 25.9 18.6 72 3.4 NNE 6 7 3 4 1014.4 1014.3 0.0
02/12:00am 24.2 25.9 18.6 71 3.5 NNE 7 11 4 6 1014.5 1014.4 0.0
 
Date/Time
CST
Temp
°C
App
Temp
°C
Dew
Point
Rel
Hum
%
Delta-T
°C
Wind Press
QNH
hPa
Press
MSL
hPa
Rain
since 9 am
mm
Dir
 
Spd
km/h
Gust
km/h
Spd
kts
Gust
kts
01/11:30pm 24.2 25.9 18.4 70 3.7 NNE 7 11 4 6 1014.4 1014.3 0.0
01/11:00pm 24.4 25.9 18.1 68 4.0 NNE 7 11 4 6 1014.1 - 0.0
01/10:30pm 24.8 25.9 18.0 66 4.3 NNE 9 13 5 7 1013.8 1013.7 0.0
01/10:00pm 24.8 25.9 18.0 66 4.3 NE 9 15 5 8 1013.8 - 0.0
01/09:30pm 25.3 26.4 18.0 64 4.6 NE 9 13 5 7 1013.5 1013.4 0.0
01/09:00pm 25.5 26.9 17.9 63 4.8 NE 7 11 4 6 1013.4 1013.3 0.0
01/08:30pm 26.1 27.2 18.0 61 5.1 NE 9 15 5 8 1013.0 1012.9 0.0
01/08:00pm 26.7 27.4 18.0 59 5.5 NE 11 17 6 9 1012.6 - 0.0
01/07:30pm 27.3 28.0 18.0 56 5.9 NE 11 19 6 10 1012.1 1012.0 0.0
01/07:00pm 27.7 29.1 18.7 58 5.8 NE 9 15 5 8 1011.8 - 0.0
01/06:30pm 29.1 30.4 18.5 52 6.8 NE 9 15 5 8 1011.3 1011.2 0.0
01/06:00pm 30.8 31.2 18.2 47 8.1 NE 13 19 7 10 1010.8 1010.7 0.0
01/05:30pm 33.0 32.4 14.6 33 11.3 ENE 11 17 6 9 1010.6 1010.5 0.0
01/05:00pm 33.7 32.7 14.7 32 11.7 NE 13 19 7 10 1010.2 - 0.0
01/04:30pm 33.7 33.2 13.7 30 12.2 ENE 9 20 5 11 1010.2 1010.1 0.0
01/04:00pm 34.2 32.9 14.7 31 12.1 NE 15 26 8 14 1010.2 - 0.0
01/03:30pm 34.3 33.2 14.2 29 12.4 ENE 13 20 7 11 1010.3 1010.2 0.0
01/03:00pm 34.2 32.9 14.7 31 12.1 NE 15 20 8 11 1010.7 1010.6 0.0
01/02:30pm 34.0 32.4 14.0 30 12.2 E 15 24 8 13 1011.3 1011.2 0.0
01/02:00pm 33.7 32.4 13.7 30 12.2 ENE 13 24 7 13 1012.0 - 0.0
01/01:30pm 33.6 32.6 14.6 31 11.7 E 13 24 7 13 1012.7 1012.6 0.0
01/01:00pm 32.7 31.0 14.8 34 11.0 ENE 17 22 9 12 1013.2 - 0.0
01/12:30pm 31.6 30.4 15.1 36 10.2 ENE 15 24 8 13 1013.8 1013.7 0.0
01/12:00pm 31.3 30.5 16.1 40 9.5 NE 15 24 8 13 1014.2 1014.1 0.0
01/11:30am 30.8 31.1 17.1 43 8.7 ENE 11 20 6 11 1014.7 1014.6 0.0
01/11:00am 29.8 29.3 16.9 45 8.1 ENE 15 22 8 12 1015.1 - 0.0
01/10:30am 28.6 29.2 17.8 52 6.8 E 11 19 6 10 1015.6 1015.5 0.0
01/10:00am 27.9 28.4 18.3 56 6.1 ENE 13 19 7 10 1015.8 - 0.0
01/09:30am 27.3 28.0 18.9 60 5.4 E 13 20 7 11 1015.8 1015.7 0.0
01/09:00am 25.9 26.2 18.8 65 4.5 E 15 20 8 11 1015.7 1015.6 0.0
01/08:30am 24.9 26.7 19.5 72 3.5 E 9 15 5 8 1015.5 1015.4 0.0
01/08:00am 23.6 26.0 19.7 79 2.5 ENE 6 9 3 5 1015.4 - 0.0
01/07:30am 22.7 25.0 19.9 84 1.8 NE 7 13 4 7 1015.0 1014.9 0.0
01/07:00am 21.9 24.6 20.2 90 1.1 NNE 6 9 3 5 1014.9 - 0.0
01/06:30am 21.9 24.9 20.0 89 1.2 NNE 4 4 2 2 1014.7 1014.6 0.0
01/06:00am 22.2 25.3 20.3 89 1.2 N 4 6 2 3 1014.2 1014.1 0.0
01/05:30am 22.4 25.1 20.3 88 1.4 NNE 6 9 3 5 1013.9 1013.8 0.0
01/05:00am 22.7 25.3 20.4 87 1.5 NNE 7 9 4 5 1013.7 - 0.0
01/04:30am 23.3 26.0 20.6 85 1.8 NNE 7 9 4 5 1013.7 1013.6 0.0
01/04:00am 23.6 26.8 20.5 83 2.0 N 4 6 2 3 1013.7 - 0.0
01/03:30am 23.9 26.8 20.6 82 2.2 NE 6 9 3 5 1013.7 1013.6 0.0
01/03:00am 24.0 26.6 20.5 81 2.3 NE 7 13 4 7 1013.9 1013.8 0.0
01/02:30am 23.8 26.4 20.5 82 2.1 ENE 7 11 4 6 1014.0 1013.9 0.0
01/02:00am 23.4 26.1 20.3 83 2.0 NE 6 9 3 5 1014.2 - 0.0
01/01:30am 23.5 25.7 19.6 79 2.5 NNE 7 13 4 7 1014.1 1014.0 0.0
01/01:00am 23.3 25.6 19.5 79 2.4 NNE 6 11 3 6 1014.0 - 0.0
01/12:30am 23.1 25.3 19.3 79 2.4 N 6 7 3 4 1013.9 1013.8 0.0
01/12:00am 23.5 25.5 18.8 75 3.0 NNE 6 6 3 3 1013.8 1013.7 0.0
 
Date/Time
CST
Temp
°C
App
Temp
°C
Dew
Point
Rel
Hum
%
Delta-T
°C
Wind Press
QNH
hPa
Press
MSL
hPa
Rain
since 9 am
mm
Dir
 
Spd
km/h
Gust
km/h
Spd
kts
Gust
kts
31/11:30pm 23.8 25.7 18.9 74 3.1 NE 7 9 4 5 1013.7 1013.6 0.0
31/11:00pm 24.3 25.6 18.5 70 3.7 NE 9 15 5 8 1013.7 - 0.0
31/10:30pm 24.8 25.1 17.8 65 4.4 NE 13 19 7 10 1013.6 1013.5 0.0
31/10:00pm 25.3 25.9 17.7 62 4.8 ENE 11 15 6 8 1013.6 - 0.0
31/09:30pm 24.8 26.5 18.0 66 4.3 NE 6 9 3 5 1013.6 1013.5 0.0
31/09:00pm 25.3 27.4 18.0 64 4.6 NE 4 7 2 4 1013.5 1013.4 0.0
31/08:30pm 25.9 27.6 18.1 62 4.9 NNE 6 7 3 4 1013.3 1013.2 0.0
31/08:00pm 26.7 27.9 18.3 60 5.3 NNE 9 13 5 7 1012.9 - 0.0
31/07:30pm 27.4 28.7 18.4 58 5.7 NNE 9 13 5 7 1012.4 1012.3 0.0
31/07:00pm 28.7 29.7 16.3 47 7.7 NNE 6 9 3 5 1011.9 - 0.0
31/06:30pm 29.7 30.6 16.1 43 8.5 NNE 6 9 3 5 1011.7 1011.6 0.0
31/06:00pm 31.1 31.7 15.9 40 9.5 NNE 7 11 4 6 1011.5 1011.4 0.0
31/05:30pm 32.1 31.7 15.1 35 10.5 NNE 11 15 6 8 1011.3 1011.2 0.0
31/05:00pm 32.9 32.3 14.5 33 11.3 NNE 11 17 6 9 1011.0 - 0.0
31/04:30pm 33.0 31.9 13.1 30 12.0 NE 11 17 6 9 1010.9 1010.8 0.0
31/04:00pm 33.4 32.0 13.5 30 12.1 E 13 20 7 11 1011.0 - 0.0
31/03:30pm 33.3 31.7 12.9 29 12.2 NE 13 20 7 11 1011.0 1010.9 0.0
31/03:00pm 33.4 31.8 14.0 31 11.8 NE 15 24 8 13 1011.5 1011.4 0.0
31/02:30pm 33.2 32.5 14.3 32 11.6 ENE 11 20 6 11 1012.1 1012.0 0.0
31/02:00pm 33.3 32.5 13.9 31 11.8 NE 11 19 6 10 1012.7 - 0.0
31/01:30pm 32.6 30.6 13.8 32 11.4 E 17 24 9 13 1013.2 1013.1 0.0
31/01:00pm 32.5 31.5 14.6 34 11.0 ENE 13 24 7 13 1013.7 - 0.0
31/12:30pm 31.0 29.9 14.2 36 10.2 ENE 13 24 7 13 1014.2 1014.1 0.0
31/12:00pm 30.8 29.2 14.0 36 10.1 NE 15 24 8 13 1014.6 1014.5 0.0
31/11:30am 31.3 29.7 14.0 35 10.5 ENE 15 24 8 13 1015.0 1014.9 0.0
31/11:00am 30.3 29.1 14.0 37 9.8 NE 13 22 7 12 1015.4 - 0.0
31/10:30am 29.4 29.8 16.2 44 8.2 NE 9 15 5 8 1015.8 1015.7 0.0
31/10:00am 27.5 29.0 17.7 55 6.2 ENE 6 11 3 6 1016.0 - 0.0
31/09:30am 27.5 30.3 17.9 55 6.1 CALM 0 7 0 4 1015.9 1015.8 0.0
31/09:00am 25.5 27.5 17.9 63 4.8 NNE 4 7 2 4 1016.0 1015.9 0.0
31/08:30am 24.8 28.6 20.1 75 3.0 CALM 0 0 0 0 1015.8 1015.7 0.0
31/08:00am 21.9 25.6 20.0 89 1.2 CALM 0 0 0 0 1015.7 - 0.0
31/07:30am 20.2 23.4 18.9 92 0.8 CALM 0 0 0 0 1015.5 1015.4 0.0
31/07:00am 19.5 22.3 18.0 91 0.9 CALM 0 0 0 0 1015.4 - 0.0
31/06:30am 20.1 23.3 18.9 93 0.8 CALM 0 0 0 0 1015.1 1015.0 0.0
31/06:00am 20.1 23.2 18.6 91 0.9 CALM 0 0 0 0 1014.9 1014.8 0.0
31/05:30am 20.3 23.3 18.4 89 1.2 CALM 0 0 0 0 1014.8 1014.7 0.0
31/05:00am 20.7 23.7 18.5 87 1.4 CALM 0 0 0 0 1014.6 - 0.0
31/04:30am 21.9 24.9 20.0 89 1.2 NE 4 6 2 3 1014.5 1014.4 0.0
31/04:00am 22.4 25.8 20.1 87 1.5 NE 2 4 1 2 1014.5 - 0.0
31/03:30am 22.9 25.4 20.2 85 1.7 NE 7 11 4 6 1014.4 1014.3 0.0
31/03:00am 23.1 25.6 20.2 84 1.9 ENE 7 11 4 6 1014.5 1014.4 0.0
31/02:30am 23.4 25.2 20.3 83 2.0 ENE 11 15 6 8 1014.6 1014.5 0.0
31/02:00am 23.6 25.5 20.5 83 2.0 ENE 11 15 6 8 1014.8 - 0.0
31/01:30am 23.7 25.5 20.4 82 2.1 ENE 11 17 6 9 1014.7 1014.6 0.0
31/01:00am 23.9 25.8 20.6 82 2.2 ENE 11 19 6 10 1014.9 - 0.0
31/12:30am 23.9 26.2 20.6 82 2.1 ENE 9 13 5 7 1014.9 1014.8 0.0
31/12:00am 24.1 26.0 20.6 81 2.3 ENE 11 17 6 9 1015.0 1014.9 0.0
 
Date/Time
CST
Temp
°C
App
Temp
°C
Dew
Point
Rel
Hum
%
Delta-T
°C
Wind Press
QNH
hPa
Press
MSL
hPa
Rain
since 9 am
mm
Dir
 
Spd
km/h
Gust
km/h
Spd
kts
Gust
kts
30/11:30pm 24.2 26.1 20.5 80 2.4 NE 11 15 6 8 1015.1 1015.0 0.0
30/11:00pm 24.4 26.2 20.3 78 2.7 ENE 11 15 6 8 1015.3 - 0.0
30/10:30pm 24.7 26.2 19.8 74 3.2 NE 11 15 6 8 1015.3 1015.2 0.0
30/10:00pm 24.6 25.9 18.5 69 3.9 NE 9 13 5 7 1015.1 - 0.0
30/09:30pm 25.2 26.8 18.2 65 4.4 NE 7 11 4 6 1014.8 1014.7 0.0
30/09:00pm 25.8 27.4 16.9 58 5.5 NNE 4 9 2 5 1014.6 1014.5 0.0
30/08:30pm 26.6 27.7 15.6 50 6.7 ENE 4 6 2 3 1014.3 1014.2 0.0
30/08:00pm 27.6 28.3 15.6 48 7.3 E 6 7 3 4 1013.8 - 0.0
30/07:30pm 28.2 28.9 15.5 46 7.8 E 6 7 3 4 1013.4 1013.3 0.0
30/07:00pm 29.1 29.7 15.2 42 8.5 E 6 7 3 4 1013.0 - 0.0
30/06:30pm 30.1 29.9 14.6 39 9.4 E 9 17 5 9 1012.6 1012.5 0.0
30/06:00pm 31.2 30.1 14.4 36 10.2 ESE 13 20 7 11 1012.3 1012.2 0.0
30/05:30pm 31.8 30.4 14.4 34 10.6 E 15 24 8 13 1012.0 1011.9 0.0
30/05:00pm 31.7 30.1 13.9 34 10.8 ENE 15 28 8 15 1011.9 - 0.0
30/04:30pm 32.7 31.2 14.3 32 11.3 ENE 15 22 8 12 1011.8 1011.7 0.0

Other Formats:

Comma delimited format used in spreadsheet applications
http://www.bom.gov.au/fwo/IDD60801/IDD60801.94110.axf

JavaScript Object Notation format (JSON) in row-major order
http://www.bom.gov.au/fwo/IDD60801/IDD60801.94110.json